Chie Maru No.10 — JD2376 — position and weather

sailwx.info

Track history (hours):
 
Tides and Currents Weather Stations Pressure Air Temp Water Temp Dewpoint Dewpoint Depression Visibility Wind Speed Wind Dir Waves Ship Positions

Chie Maru No.10

Last reported at 2017-Jun-26 13:21 UTC. Time now 2017-Jun-26 14:05 UTC.
Position N 34°32' E 135°19'.

Length 72 m; draft 5 m.

Type: Ship. MMSI: 431000147.

Date/timePositionNaut miles runAvg speedWind from/ knotsBaromVisibWave heightAir tempDewpointWater temp
2017-Jun-26 13:21N 34°32' E 135°19'0 0.0
2017-Jun-26 12:51N 34°32' E 135°19'0 0.0
2017-Jun-26 12:27N 34°32' E 135°19'0 0.1
2017-Jun-26 11:51N 34°32' E 135°19'1 1.5
2017-Jun-26 11:30N 34°32' E 135°18'611.4
2017-Jun-26 11:00N 34°29' E 135°13'611.7
2017-Jun-26 10:29N 34°25' E 135°07'1112.2
2017-Jun-26 09:33N 34°16' E 134°59'211.5
2017-Jun-26 09:24N 34°14' E 134°59'410.1
2017-Jun-26 09:01N 34°10' E 134°60'243 9.1
2017-Jun-25 06:20N 35°12' E 139°46'410.6
2017-Jun-25 05:58N 35°16' E 139°46'511.1
2017-Jun-25 05:30N 35°20' E 139°43'611.2
2017-Jun-25 05:01N 35°26' E 139°44'510.1
2017-Jun-25 04:30N 35°30' E 139°47'2 3.0
2017-Jun-25 04:01N 35°32' E 139°46'0 0.0
2017-Jun-25 03:31N 35°32' E 139°46'0 0.0
2017-Jun-25 03:01N 35°32' E 139°46'0 0.0
2017-Jun-25 02:31N 35°32' E 139°46'0 0.0
2017-Jun-25 02:01N 35°32' E 139°46'0 0.0
2017-Jun-25 01:31N 35°32' E 139°46'0 0.0
2017-Jun-25 01:01N 35°32' E 139°46'0 0.0
2017-Jun-25 00:31N 35°32' E 139°46'0 0.0
2017-Jun-25 00:01N 35°32' E 139°46'0 0.0
2017-Jun-24 23:31N 35°32' E 139°46'0 0.0
2017-Jun-24 23:00N 35°32' E 139°46'0 0.0
2017-Jun-24 22:30N 35°32' E 139°46'0 0.1
2017-Jun-24 22:01N 35°31' E 139°46'2 5.0
2017-Jun-24 21:31N 35°30' E 139°48'2 2.8
2017-Jun-24 20:58N 35°28' E 139°48'0 0.0
2017-Jun-24 20:25N 35°28' E 139°48'0 0.0
2017-Jun-24 19:58N 35°28' E 139°48'0 0.0
2017-Jun-24 19:28N 35°28' E 139°48'0 0.0
2017-Jun-24 18:58N 35°28' E 139°48'0 0.0
2017-Jun-24 18:28N 35°28' E 139°48'0 0.0
2017-Jun-24 17:58N 35°28' E 139°48'0 0.0
2017-Jun-24 17:25N 35°28' E 139°48'0 0.0
2017-Jun-24 16:58N 35°28' E 139°48'0 0.0
2017-Jun-24 16:28N 35°28' E 139°48'0 0.0
2017-Jun-24 15:58N 35°28' E 139°48'0 0.0
2017-Jun-24 15:28N 35°28' E 139°48'0 0.0
2017-Jun-24 14:58N 35°28' E 139°48'0 0.0
2017-Jun-24 13:58N 35°28' E 139°48'0 0.0
2017-Jun-24 13:28N 35°28' E 139°48'0 0.0
2017-Jun-24 12:58N 35°28' E 139°48'0 0.0
2017-Jun-24 12:28N 35°28' E 139°48'0 0.0
2017-Jun-24 12:00N 35°28' E 139°48'4 7.9
2017-Jun-24 11:30N 35°25' E 139°46'612.1
2017-Jun-24 11:01N 35°19' E 139°44'611.7
2017-Jun-24 10:28N 35°13' E 139°47'  
2017-Jun-22 02:14N 33°59' E 135°00'613.2
2017-Jun-22 01:45N 34°06' E 135°02'312.2
2017-Jun-22 01:29N 34°08' E 135°04'4 9.1
2017-Jun-22 01:01N 34°10' E 135°09'0 0.1
2017-Jun-22 00:30N 34°10' E 135°09'0 0.0
2017-Jun-22 00:00N 34°10' E 135°09'0 0.0
2017-Jun-21 23:31N 34°10' E 135°09'0 0.0
2017-Jun-21 23:00N 34°10' E 135°09'0 0.0
2017-Jun-21 22:31N 34°10' E 135°09'0 0.0
2017-Jun-21 22:01N 34°10' E 135°09'0 0.0
2017-Jun-21 21:31N 34°10' E 135°09'0 0.0
2017-Jun-21 21:01N 34°10' E 135°09'0 0.0
2017-Jun-21 20:30N 34°10' E 135°09'0 0.0
2017-Jun-21 20:00N 34°10' E 135°09'0 0.0
2017-Jun-21 19:30N 34°10' E 135°09'0 0.0
2017-Jun-21 19:00N 34°10' E 135°09'0 0.1
2017-Jun-21 18:29N 34°10' E 135°09'0 0.0
2017-Jun-21 18:01N 34°10' E 135°09'0 0.0
2017-Jun-21 17:30N 34°10' E 135°09'0 0.0
2017-Jun-21 17:00N 34°10' E 135°09'0 0.0
2017-Jun-21 16:29N 34°10' E 135°09'0 0.0
2017-Jun-21 16:00N 34°10' E 135°09'0 0.0
2017-Jun-21 15:30N 34°10' E 135°09'0 0.0
2017-Jun-21 15:00N 34°10' E 135°09'0 0.0
2017-Jun-21 14:01N 34°10' E 135°09'0 0.0
2017-Jun-21 13:30N 34°10' E 135°09'0 0.0
2017-Jun-21 13:01N 34°10' E 135°09'0 0.0
2017-Jun-21 12:31N 34°10' E 135°09'0 0.0
2017-Jun-21 12:00N 34°10' E 135°09'0 0.0
2017-Jun-21 11:31N 34°10' E 135°09'0 0.0
2017-Jun-21 11:00N 34°10' E 135°09'0 0.1
2017-Jun-21 10:31N 34°10' E 135°09'0 0.1
2017-Jun-21 10:00N 34°10' E 135°09'0 0.0
2017-Jun-21 09:31N 34°10' E 135°09'0 0.0
2017-Jun-21 09:00N 34°10' E 135°09'0 0.0
2017-Jun-21 08:30N 34°10' E 135°09'0 0.0
2017-Jun-21 07:59N 34°10' E 135°09'0 0.0
2017-Jun-21 07:31N 34°10' E 135°09'0 0.0
2017-Jun-21 07:00N 34°10' E 135°09'0 0.1
2017-Jun-21 06:30N 34°10' E 135°09'0 0.1
2017-Jun-21 06:00N 34°10' E 135°09'0 0.0
2017-Jun-21 05:30N 34°10' E 135°09'0 0.0
2017-Jun-21 05:01N 34°10' E 135°09'0 0.1
2017-Jun-21 04:30N 34°10' E 135°09'0 0.1
2017-Jun-21 04:00N 34°10' E 135°09'0 0.0
2017-Jun-21 03:30N 34°10' E 135°09'0 0.0
2017-Jun-21 03:01N 34°10' E 135°09'0 0.0
2017-Jun-21 02:31N 34°10' E 135°09'0 0.0
2017-Jun-21 02:01N 34°10' E 135°09'0 0.0
2017-Jun-21 01:31N 34°10' E 135°09'0 0.0
2017-Jun-21 01:00N 34°10' E 135°09'0 0.0
2017-Jun-21 00:30N 34°10' E 135°09'0 0.0
2017-Jun-21 00:00N 34°10' E 135°09'0 0.0
2017-Jun-20 23:31N 34°10' E 135°09'0 0.0
2017-Jun-20 23:01N 34°10' E 135°09'0 0.0
2017-Jun-20 22:30N 34°10' E 135°09'0 0.0
2017-Jun-20 22:01N 34°10' E 135°09'0 0.0
2017-Jun-20 21:30N 34°10' E 135°09'0 0.1
2017-Jun-20 21:00N 34°10' E 135°09'1 1.3
2017-Jun-20 20:30N 34°09' E 135°09'0 0.1
2017-Jun-20 20:00N 34°09' E 135°09'1 2.8
2017-Jun-20 19:31N 34°09' E 135°08'9 0.9
2017-Jun-20 09:39N 34°03' E 134°59'312.3
2017-Jun-20 09:23N 34°07' E 134°59'511.9
2017-Jun-20 09:00N 34°11' E 134°59'1011.1
2017-Jun-20 08:08N 34°21' E 135°00'410.7
2017-Jun-20 07:48N 34°24' E 135°03'411.4
2017-Jun-20 07:29N 34°25' E 135°06'611.9
2017-Jun-20 07:00N 34°28' E 135°12'611.9
2017-Jun-20 06:30N 34°32' E 135°19'510.7
2017-Jun-20 06:00N 34°33' E 135°25'1 1.7
2017-Jun-20 05:30N 34°33' E 135°26'0 0.0
2017-Jun-20 05:00N 34°33' E 135°26'0 0.0
2017-Jun-20 04:29N 34°33' E 135°26'0 0.0
2017-Jun-20 04:00N 34°33' E 135°26'0 0.0
2017-Jun-20 03:29N 34°33' E 135°26'0 0.0
2017-Jun-20 03:00N 34°33' E 135°26'0 0.0
2017-Jun-20 00:44N 34°33' E 135°26'0 0.0
2017-Jun-20 00:25N 34°33' E 135°26'0 0.0
2017-Jun-19 23:39N 34°33' E 135°26'0 0.0
2017-Jun-19 23:30N 34°33' E 135°26'0 0.0
2017-Jun-19 22:57N 34°33' E 135°26'0 0.0
2017-Jun-19 22:30N 34°33' E 135°26'1 3.0
2017-Jun-19 22:00N 34°33' E 135°24'4 8.0
2017-Jun-19 21:30N 34°33' E 135°19'0 0.8
2017-Jun-19 20:58N 34°32' E 135°19'0 0.0
2017-Jun-19 20:22N 34°32' E 135°19'0 0.0
2017-Jun-19 19:58N 34°32' E 135°19'0 0.0
2017-Jun-19 19:28N 34°32' E 135°19'0 0.1
2017-Jun-19 18:34N 34°32' E 135°19'0 0.0
2017-Jun-19 18:16N 34°32' E 135°19'0 0.0
2017-Jun-19 17:52N 34°32' E 135°19'0 0.1
2017-Jun-19 17:22N 34°32' E 135°19'0 0.0
2017-Jun-19 16:58N 34°32' E 135°19'0 0.0
2017-Jun-19 16:04N 34°32' E 135°19'0 0.0
2017-Jun-19 15:46N 34°32' E 135°19'0 0.0
2017-Jun-19 15:22N 34°32' E 135°19'0 0.0
2017-Jun-19 13:58N 34°32' E 135°19'0 0.0
2017-Jun-19 12:46N 34°32' E 135°19'0 0.0
2017-Jun-19 12:28N 34°32' E 135°19'0 0.0
2017-Jun-19 11:16N 34°32' E 135°19'0 0.0
2017-Jun-19 10:58N 34°32' E 135°19'0 0.0
2017-Jun-19 10:16N 34°32' E 135°19'0 0.0
2017-Jun-19 09:52N 34°32' E 135°19'1 2.0
2017-Jun-19 09:30N 34°32' E 135°18'611.8
2017-Jun-19 09:01N 34°29' E 135°13'612.5
2017-Jun-19 08:30N 34°25' E 135°06'1012.3
2017-Jun-19 07:40N 34°16' E 134°59'212.3
2017-Jun-19 07:30N 34°14' E 134°60'612.0
2017-Jun-19 07:00N 34°08' E 134°60'244 9.7
2017-Jun-18 05:53N 35°12' E 139°46'513.0
2017-Jun-18 05:30N 35°17' E 139°45'612.2
2017-Jun-18 05:00N 35°23' E 139°42'612.4
2017-Jun-18 04:30N 35°28' E 139°47'4 7.4
2017-Jun-18 04:00N 35°31' E 139°46'0 0.1
2017-Jun-18 03:30N 35°32' E 139°46'0 0.0
2017-Jun-18 03:00N 35°32' E 139°46'0 0.0
2017-Jun-18 02:30N 35°32' E 139°46'0 0.0
2017-Jun-18 02:00N 35°32' E 139°46'0 0.0
2017-Jun-18 01:30N 35°32' E 139°46'0 0.0
2017-Jun-18 01:00N 35°32' E 139°46'0 0.0
2017-Jun-18 00:30N 35°32' E 139°46'0 0.0
2017-Jun-18 00:00N 35°32' E 139°46'0 0.0
2017-Jun-17 23:30N 35°32' E 139°46'0 0.0
2017-Jun-17 23:00N 35°32' E 139°46'0 0.0
2017-Jun-17 22:30N 35°32' E 139°46'0 0.0
2017-Jun-17 22:00N 35°32' E 139°46'2 3.2
2017-Jun-17 21:30N 35°30' E 139°47'2 3.4
2017-Jun-17 21:01N 35°29' E 139°48'0 0.1
2017-Jun-17 20:28N 35°29' E 139°48'0 0.0
2017-Jun-17 19:58N 35°29' E 139°48'0 0.0
2017-Jun-17 19:28N 35°29' E 139°48'0 0.0
2017-Jun-17 18:58N 35°29' E 139°48'0 0.0
2017-Jun-17 18:28N 35°29' E 139°48'0 0.0
2017-Jun-17 17:58N 35°29' E 139°48'0 0.0
2017-Jun-17 17:28N 35°29' E 139°48'0 0.0
2017-Jun-17 16:58N 35°29' E 139°48'0 0.0
2017-Jun-17 16:28N 35°29' E 139°48'0 0.0
2017-Jun-17 15:58N 35°29' E 139°48'0 0.0
2017-Jun-17 15:28N 35°29' E 139°48'0 0.0
2017-Jun-17 14:58N 35°29' E 139°48'0 0.0
2017-Jun-17 14:28N 35°29' E 139°48'0 0.0
2017-Jun-17 13:28N 35°29' E 139°48'0 0.0
2017-Jun-17 12:58N 35°29' E 139°48'0 0.0
2017-Jun-17 12:28N 35°29' E 139°48'0 0.0
2017-Jun-17 11:58N 35°29' E 139°48'0 0.0
2017-Jun-17 11:30N 35°29' E 139°48'5 9.0
2017-Jun-17 11:00N 35°25' E 139°46'612.6
2017-Jun-17 10:30N 35°19' E 139°44'612.4
2017-Jun-17 10:00N 35°13' E 139°47'912.5
2017-Jun-17 09:18N 35°04' E 139°44'  
Track history (hours):
 
Tides and Currents Weather Stations Pressure Air Temp Water Temp Dewpoint Dewpoint Depression Visibility Wind Speed Wind Dir Waves Ship Positions

Chie Maru No.10

Last reported at 2017-Jun-26 13:21 UTC. Time now 2017-Jun-26 14:05 UTC.
Position N 34°32' E 135°19'.

Length 72 m; draft 5 m.

Type: Ship. MMSI: 431000147.

Date/timePositionNaut miles runAvg speedWind from/ knotsBaromVisibWave heightAir tempDewpointWater temp
2017-Jun-26 13:21N 34°32' E 135°19'0 0.0
2017-Jun-26 12:51N 34°32' E 135°19'0 0.0
2017-Jun-26 12:27N 34°32' E 135°19'0 0.1
2017-Jun-26 11:51N 34°32' E 135°19'1 1.5
2017-Jun-26 11:30N 34°32' E 135°18'611.4
2017-Jun-26 11:00N 34°29' E 135°13'611.7
2017-Jun-26 10:29N 34°25' E 135°07'1112.2
2017-Jun-26 09:33N 34°16' E 134°59'211.5
2017-Jun-26 09:24N 34°14' E 134°59'410.1
2017-Jun-26 09:01N 34°10' E 134°60'243 9.1
2017-Jun-25 06:20N 35°12' E 139°46'410.6
2017-Jun-25 05:58N 35°16' E 139°46'511.1
2017-Jun-25 05:30N 35°20' E 139°43'611.2
2017-Jun-25 05:01N 35°26' E 139°44'510.1
2017-Jun-25 04:30N 35°30' E 139°47'2 3.0
2017-Jun-25 04:01N 35°32' E 139°46'0 0.0
2017-Jun-25 03:31N 35°32' E 139°46'0 0.0
2017-Jun-25 03:01N 35°32' E 139°46'0 0.0
2017-Jun-25 02:31N 35°32' E 139°46'0 0.0
2017-Jun-25 02:01N 35°32' E 139°46'0 0.0
2017-Jun-25 01:31N 35°32' E 139°46'0 0.0
2017-Jun-25 01:01N 35°32' E 139°46'0 0.0
2017-Jun-25 00:31N 35°32' E 139°46'0 0.0
2017-Jun-25 00:01N 35°32' E 139°46'0 0.0
2017-Jun-24 23:31N 35°32' E 139°46'0 0.0
2017-Jun-24 23:00N 35°32' E 139°46'0 0.0
2017-Jun-24 22:30N 35°32' E 139°46'0 0.1
2017-Jun-24 22:01N 35°31' E 139°46'2 5.0
2017-Jun-24 21:31N 35°30' E 139°48'2 2.8
2017-Jun-24 20:58N 35°28' E 139°48'0 0.0
2017-Jun-24 20:25N 35°28' E 139°48'0 0.0
2017-Jun-24 19:58N 35°28' E 139°48'0 0.0
2017-Jun-24 19:28N 35°28' E 139°48'0 0.0
2017-Jun-24 18:58N 35°28' E 139°48'0 0.0
2017-Jun-24 18:28N 35°28' E 139°48'0 0.0
2017-Jun-24 17:58N 35°28' E 139°48'0 0.0
2017-Jun-24 17:25N 35°28' E 139°48'0 0.0
2017-Jun-24 16:58N 35°28' E 139°48'0 0.0
2017-Jun-24 16:28N 35°28' E 139°48'0 0.0
2017-Jun-24 15:58N 35°28' E 139°48'0 0.0
2017-Jun-24 15:28N 35°28' E 139°48'0 0.0
2017-Jun-24 14:58N 35°28' E 139°48'0 0.0
2017-Jun-24 13:58N 35°28' E 139°48'0 0.0
2017-Jun-24 13:28N 35°28' E 139°48'0 0.0
2017-Jun-24 12:58N 35°28' E 139°48'0 0.0
2017-Jun-24 12:28N 35°28' E 139°48'0 0.0
2017-Jun-24 12:00N 35°28' E 139°48'4 7.9
2017-Jun-24 11:30N 35°25' E 139°46'612.1
2017-Jun-24 11:01N 35°19' E 139°44'611.7
2017-Jun-24 10:28N 35°13' E 139°47'  
2017-Jun-22 02:14N 33°59' E 135°00'613.2
2017-Jun-22 01:45N 34°06' E 135°02'312.2
2017-Jun-22 01:29N 34°08' E 135°04'4 9.1
2017-Jun-22 01:01N 34°10' E 135°09'0 0.1
2017-Jun-22 00:30N 34°10' E 135°09'0 0.0
2017-Jun-22 00:00N 34°10' E 135°09'0 0.0
2017-Jun-21 23:31N 34°10' E 135°09'0 0.0
2017-Jun-21 23:00N 34°10' E 135°09'0 0.0
2017-Jun-21 22:31N 34°10' E 135°09'0 0.0
2017-Jun-21 22:01N 34°10' E 135°09'0 0.0
2017-Jun-21 21:31N 34°10' E 135°09'0 0.0
2017-Jun-21 21:01N 34°10' E 135°09'0 0.0
2017-Jun-21 20:30N 34°10' E 135°09'0 0.0
2017-Jun-21 20:00N 34°10' E 135°09'0 0.0
2017-Jun-21 19:30N 34°10' E 135°09'0 0.0
2017-Jun-21 19:00N 34°10' E 135°09'0 0.1
2017-Jun-21 18:29N 34°10' E 135°09'0 0.0
2017-Jun-21 18:01N 34°10' E 135°09'0 0.0
2017-Jun-21 17:30N 34°10' E 135°09'0 0.0
2017-Jun-21 17:00N 34°10' E 135°09'0 0.0
2017-Jun-21 16:29N 34°10' E 135°09'0 0.0
2017-Jun-21 16:00N 34°10' E 135°09'0 0.0
2017-Jun-21 15:30N 34°10' E 135°09'0 0.0
2017-Jun-21 15:00N 34°10' E 135°09'0 0.0
2017-Jun-21 14:01N 34°10' E 135°09'0 0.0
2017-Jun-21 13:30N 34°10' E 135°09'0 0.0
2017-Jun-21 13:01N 34°10' E 135°09'0 0.0
2017-Jun-21 12:31N 34°10' E 135°09'0 0.0
2017-Jun-21 12:00N 34°10' E 135°09'0 0.0
2017-Jun-21 11:31N 34°10' E 135°09'0 0.0
2017-Jun-21 11:00N 34°10' E 135°09'0 0.1
2017-Jun-21 10:31N 34°10' E 135°09'0 0.1
2017-Jun-21 10:00N 34°10' E 135°09'0 0.0
2017-Jun-21 09:31N 34°10' E 135°09'0 0.0
2017-Jun-21 09:00N 34°10' E 135°09'0 0.0
2017-Jun-21 08:30N 34°10' E 135°09'0 0.0
2017-Jun-21 07:59N 34°10' E 135°09'0 0.0
2017-Jun-21 07:31N 34°10' E 135°09'0 0.0
2017-Jun-21 07:00N 34°10' E 135°09'0 0.1
2017-Jun-21 06:30N 34°10' E 135°09'0 0.1
2017-Jun-21 06:00N 34°10' E 135°09'0 0.0
2017-Jun-21 05:30N 34°10' E 135°09'0 0.0
2017-Jun-21 05:01N 34°10' E 135°09'0 0.1
2017-Jun-21 04:30N 34°10' E 135°09'0 0.1
2017-Jun-21 04:00N 34°10' E 135°09'0 0.0
2017-Jun-21 03:30N 34°10' E 135°09'0 0.0
2017-Jun-21 03:01N 34°10' E 135°09'0 0.0
2017-Jun-21 02:31N 34°10' E 135°09'0 0.0
2017-Jun-21 02:01N 34°10' E 135°09'0 0.0
2017-Jun-21 01:31N 34°10' E 135°09'0 0.0
2017-Jun-21 01:00N 34°10' E 135°09'0 0.0
2017-Jun-21 00:30N 34°10' E 135°09'0 0.0
2017-Jun-21 00:00N 34°10' E 135°09'0 0.0
2017-Jun-20 23:31N 34°10' E 135°09'0 0.0
2017-Jun-20 23:01N 34°10' E 135°09'0 0.0
2017-Jun-20 22:30N 34°10' E 135°09'0 0.0
2017-Jun-20 22:01N 34°10' E 135°09'0 0.0
2017-Jun-20 21:30N 34°10' E 135°09'0 0.1
2017-Jun-20 21:00N 34°10' E 135°09'1 1.3
2017-Jun-20 20:30N 34°09' E 135°09'0 0.1
2017-Jun-20 20:00N 34°09' E 135°09'1 2.8
2017-Jun-20 19:31N 34°09' E 135°08'9 0.9
2017-Jun-20 09:39N 34°03' E 134°59'312.3
2017-Jun-20 09:23N 34°07' E 134°59'511.9
2017-Jun-20 09:00N 34°11' E 134°59'1011.1
2017-Jun-20 08:08N 34°21' E 135°00'410.7
2017-Jun-20 07:48N 34°24' E 135°03'411.4
2017-Jun-20 07:29N 34°25' E 135°06'611.9
2017-Jun-20 07:00N 34°28' E 135°12'611.9
2017-Jun-20 06:30N 34°32' E 135°19'510.7
2017-Jun-20 06:00N 34°33' E 135°25'1 1.7
2017-Jun-20 05:30N 34°33' E 135°26'0 0.0
2017-Jun-20 05:00N 34°33' E 135°26'0 0.0
2017-Jun-20 04:29N 34°33' E 135°26'0 0.0
2017-Jun-20 04:00N 34°33' E 135°26'0 0.0
2017-Jun-20 03:29N 34°33' E 135°26'0 0.0
2017-Jun-20 03:00N 34°33' E 135°26'0 0.0
2017-Jun-20 00:44N 34°33' E 135°26'0 0.0
2017-Jun-20 00:25N 34°33' E 135°26'0 0.0
2017-Jun-19 23:39N 34°33' E 135°26'0 0.0
2017-Jun-19 23:30N 34°33' E 135°26'0 0.0
2017-Jun-19 22:57N 34°33' E 135°26'0 0.0
2017-Jun-19 22:30N 34°33' E 135°26'1 3.0
2017-Jun-19 22:00N 34°33' E 135°24'4 8.0
2017-Jun-19 21:30N 34°33' E 135°19'0 0.8
2017-Jun-19 20:58N 34°32' E 135°19'0 0.0
2017-Jun-19 20:22N 34°32' E 135°19'0 0.0
2017-Jun-19 19:58N 34°32' E 135°19'0 0.0
2017-Jun-19 19:28N 34°32' E 135°19'0 0.1
2017-Jun-19 18:34N 34°32' E 135°19'0 0.0
2017-Jun-19 18:16N 34°32' E 135°19'0 0.0
2017-Jun-19 17:52N 34°32' E 135°19'0 0.1
2017-Jun-19 17:22N 34°32' E 135°19'0 0.0
2017-Jun-19 16:58N 34°32' E 135°19'0 0.0
2017-Jun-19 16:04N 34°32' E 135°19'0 0.0
2017-Jun-19 15:46N 34°32' E 135°19'0 0.0
2017-Jun-19 15:22N 34°32' E 135°19'0 0.0
2017-Jun-19 13:58N 34°32' E 135°19'0 0.0
2017-Jun-19 12:46N 34°32' E 135°19'0 0.0
2017-Jun-19 12:28N 34°32' E 135°19'0 0.0
2017-Jun-19 11:16N 34°32' E 135°19'0 0.0
2017-Jun-19 10:58N 34°32' E 135°19'0 0.0
2017-Jun-19 10:16N 34°32' E 135°19'0 0.0
2017-Jun-19 09:52N 34°32' E 135°19'1 2.0
2017-Jun-19 09:30N 34°32' E 135°18'611.8
2017-Jun-19 09:01N 34°29' E 135°13'612.5
2017-Jun-19 08:30N 34°25' E 135°06'1012.3
2017-Jun-19 07:40N 34°16' E 134°59'212.3
2017-Jun-19 07:30N 34°14' E 134°60'612.0
2017-Jun-19 07:00N 34°08' E 134°60'244 9.7
2017-Jun-18 05:53N 35°12' E 139°46'513.0
2017-Jun-18 05:30N 35°17' E 139°45'612.2
2017-Jun-18 05:00N 35°23' E 139°42'612.4
2017-Jun-18 04:30N 35°28' E 139°47'4 7.4
2017-Jun-18 04:00N 35°31' E 139°46'0 0.1
2017-Jun-18 03:30N 35°32' E 139°46'0 0.0
2017-Jun-18 03:00N 35°32' E 139°46'0 0.0
2017-Jun-18 02:30N 35°32' E 139°46'0 0.0
2017-Jun-18 02:00N 35°32' E 139°46'0 0.0
2017-Jun-18 01:30N 35°32' E 139°46'0 0.0
2017-Jun-18 01:00N 35°32' E 139°46'0 0.0
2017-Jun-18 00:30N 35°32' E 139°46'0 0.0
2017-Jun-18 00:00N 35°32' E 139°46'0 0.0
2017-Jun-17 23:30N 35°32' E 139°46'0 0.0
2017-Jun-17 23:00N 35°32' E 139°46'0 0.0
2017-Jun-17 22:30N 35°32' E 139°46'0 0.0
2017-Jun-17 22:00N 35°32' E 139°46'2 3.2
2017-Jun-17 21:30N 35°30' E 139°47'2 3.4
2017-Jun-17 21:01N 35°29' E 139°48'0 0.1
2017-Jun-17 20:28N 35°29' E 139°48'0 0.0
2017-Jun-17 19:58N 35°29' E 139°48'0 0.0
2017-Jun-17 19:28N 35°29' E 139°48'0 0.0
2017-Jun-17 18:58N 35°29' E 139°48'0 0.0
2017-Jun-17 18:28N 35°29' E 139°48'0 0.0
2017-Jun-17 17:58N 35°29' E 139°48'0 0.0
2017-Jun-17 17:28N 35°29' E 139°48'0 0.0
2017-Jun-17 16:58N 35°29' E 139°48'0 0.0
2017-Jun-17 16:28N 35°29' E 139°48'0 0.0
2017-Jun-17 15:58N 35°29' E 139°48'0 0.0
2017-Jun-17 15:28N 35°29' E 139°48'0 0.0
2017-Jun-17 14:58N 35°29' E 139°48'0 0.0
2017-Jun-17 14:28N 35°29' E 139°48'0 0.0
2017-Jun-17 13:28N 35°29' E 139°48'0 0.0
2017-Jun-17 12:58N 35°29' E 139°48'0 0.0
2017-Jun-17 12:28N 35°29' E 139°48'0 0.0
2017-Jun-17 11:58N 35°29' E 139°48'0 0.0
2017-Jun-17 11:30N 35°29' E 139°48'5 9.0
2017-Jun-17 11:00N 35°25' E 139°46'612.6
2017-Jun-17 10:30N 35°19' E 139°44'612.4
2017-Jun-17 10:00N 35°13' E 139°47'912.5
2017-Jun-17 09:18N 35°04' E 139°44'  

Dump ship's entire track history